Time;durP1;ratioP1;P1;durP2;ratioP2;P2;SDS_P1;SDS_P2;PMS_P1;PMS_P2;Temp;Humidity;BMP_temperature;BMP_pressure;BME280_temperature;BME280_humidity;BME280_pressure;Samples;Min_cycle;Max_cycle;Signal;HPM_P1;HPM_P2
2022/11/29 00:01:33;;;;;;;17.38;14.50;;;;;;;;;;4931538;29;20035;-73
2022/11/29 00:03:59;;;;;;;21.02;13.98;;;;;;;;;;4931775;29;20593;-73
2022/11/29 00:06:32;;;;;;;18.20;14.40;;;;;;;;;;4948521;28;20048;-72
2022/11/29 00:09:02;;;;;;;18.45;15.35;;;;;;;;;;4930888;29;20395;-72
2022/11/29 00:14:16;;;;;;;17.08;14.82;;;;;;;;;;4930049;29;20058;-72
2022/11/29 00:16:42;;;;;;;20.40;15.88;;;;;;;;;;4932878;29;20027;-73
2022/11/29 00:19:09;;;;;;;21.80;16.85;;;;;;;;;;4959129;28;20036;-72
2022/11/29 00:21:37;;;;;;;20.30;15.98;;;;;;;;;;4929268;29;20031;-72
2022/11/29 00:24:03;;;;;;;18.10;14.70;;;;;;;;;;4930361;29;20409;-72
2022/11/29 00:26:32;;;;;;;19.92;15.52;;;;;;;;;;4963323;28;20040;-72
2022/11/29 00:29:00;;;;;;;22.27;15.40;;;;;;;;;;4928928;29;20056;-72
2022/11/29 00:31:29;;;;;;;20.40;14.15;;;;;;;;;;4945916;28;20040;-72
2022/11/29 00:33:56;;;;;;;16.65;14.95;;;;;;;;;;4929781;29;20055;-74
2022/11/29 00:36:22;;;;;;;16.48;14.77;;;;;;;;;;4930172;29;20035;-72
2022/11/29 00:38:50;;;;;;;19.05;14.48;;;;;;;;;;4926489;29;20055;-73
2022/11/29 00:41:16;;;;;;;19.63;15.50;;;;;;;;;;4927937;29;20497;-73
2022/11/29 00:43:42;;;;;;;15.40;13.57;;;;;;;;;;4963635;28;20028;-73
2022/11/29 00:46:08;;;;;;;20.08;14.15;;;;;;;;;;4930468;29;20031;-73
2022/11/29 00:48:34;;;;;;;20.35;13.15;;;;;;;;;;4930725;29;20038;-72
2022/11/29 00:51:03;;;;;;;16.45;14.75;;;;;;;;;;4932317;29;20035;-73
2022/11/29 00:53:29;;;;;;;18.10;14.73;;;;;;;;;;4928356;29;20490;-73
2022/11/29 00:55:57;;;;;;;16.08;14.13;;;;;;;;;;4932872;29;20483;-73
2022/11/29 00:58:26;;;;;;;19.35;14.20;;;;;;;;;;4930243;29;20028;-73
2022/11/29 01:00:52;;;;;;;17.55;15.50;;;;;;;;;;4931933;29;20027;-73
2022/11/29 01:03:21;;;;;;;23.35;15.13;;;;;;;;;;4929838;29;20031;-73
2022/11/29 01:05:49;;;;;;;19.65;14.20;;;;;;;;;;4930331;29;20445;-73
2022/11/29 01:08:16;;;;;;;17.60;13.85;;;;;;;;;;4930082;29;20031;-73
2022/11/29 01:10:42;;;;;;;19.23;15.13;;;;;;;;;;4927007;29;20043;-73
2022/11/29 01:13:10;;;;;;;15.00;13.30;;;;;;;;;;4930611;29;20032;-73
2022/11/29 01:15:39;;;;;;;18.23;14.60;;;;;;;;;;4930629;29;20031;-73
2022/11/29 01:18:07;;;;;;;16.35;13.27;;;;;;;;;;4913068;29;20099;-73
2022/11/29 01:20:35;;;;;;;16.17;13.93;;;;;;;;;;4945489;28;20611;-73
2022/11/29 01:23:01;;;;;;;15.98;14.25;;;;;;;;;;4913916;29;20059;-73
2022/11/29 01:25:30;;;;;;;13.38;11.55;;;;;;;;;;4944212;28;20465;-73
2022/11/29 01:27:57;;;;;;;16.88;13.93;;;;;;;;;;4971044;23;20501;-76
2022/11/29 01:30:28;;;;;;;17.40;13.63;;;;;;;;;;4944938;28;20031;-77
2022/11/29 01:32:54;;;;;;;16.58;13.88;;;;;;;;;;4945191;28;20050;-77
2022/11/29 01:35:20;;;;;;;12.95;11.40;;;;;;;;;;4972248;28;20386;-77
2022/11/29 01:37:48;;;;;;;14.95;12.93;;;;;;;;;;4947808;28;20031;-77
2022/11/29 01:40:16;;;;;;;18.02;12.27;;;;;;;;;;4949284;29;20417;-77
2022/11/29 01:42:44;;;;;;;14.45;11.75;;;;;;;;;;4945458;28;20031;-76
2022/11/29 01:45:22;;;;;;;16.65;14.30;;;;;;;;;;4945117;29;20035;-77
2022/11/29 01:47:53;;;;;;;19.48;13.88;;;;;;;;;;4935167;28;20043;-77
2022/11/29 01:50:21;;;;;;;16.38;14.38;;;;;;;;;;4946743;29;20035;-77
2022/11/29 01:52:54;;;;;;;16.95;13.18;;;;;;;;;;4950627;29;20035;-76
2022/11/29 01:55:20;;;;;;;15.80;11.15;;;;;;;;;;4946295;29;20023;-77
2022/11/29 01:57:48;;;;;;;17.38;13.60;;;;;;;;;;4949165;29;20023;-76
2022/11/29 02:00:17;;;;;;;15.13;12.13;;;;;;;;;;4947727;29;20478;-76
2022/11/29 02:02:54;;;;;;;17.02;13.65;;;;;;;;;;4943468;29;20044;-77
2022/11/29 02:05:22;;;;;;;16.23;14.07;;;;;;;;;;4947076;28;20023;-77
2022/11/29 02:07:54;;;;;;;18.80;14.05;;;;;;;;;;4943926;29;20043;-77
2022/11/29 02:10:31;;;;;;;18.65;14.35;;;;;;;;;;4942478;29;20040;-76
2022/11/29 02:13:21;;;;;;;18.90;14.95;;;;;;;;;;4949490;29;20027;-76
2022/11/29 02:15:59;;;;;;;17.05;15.13;;;;;;;;;;4943473;29;20043;-76
2022/11/29 02:18:38;;;;;;;19.10;15.45;;;;;;;;;;4932351;29;20031;-76
2022/11/29 02:21:09;;;;;;;22.33;16.20;;;;;;;;;;4944180;29;20501;-77
2022/11/29 02:23:43;;;;;;;18.42;15.20;;;;;;;;;;4944747;29;20031;-77
2022/11/29 02:26:22;;;;;;;18.23;14.40;;;;;;;;;;4944086;28;20670;-77
2022/11/29 02:29:01;;;;;;;17.90;14.05;;;;;;;;;;4946396;29;20035;-77
2022/11/29 02:31:48;;;;;;;17.75;13.77;;;;;;;;;;4945142;29;20034;-76
2022/11/29 02:34:17;;;;;;;15.48;13.40;;;;;;;;;;4944012;28;20493;-76
2022/11/29 02:36:45;;;;;;;13.85;12.32;;;;;;;;;;4948000;29;20035;-76
2022/11/29 02:39:14;;;;;;;21.52;18.17;;;;;;;;;;4952159;29;20028;-76
2022/11/29 02:41:55;;;;;;;22.45;16.20;;;;;;;;;;4949836;29;20023;-77
2022/11/29 02:44:40;;;;;;;25.60;15.90;;;;;;;;;;4941238;28;20043;-77
2022/11/29 02:47:14;;;;;;;17.05;14.88;;;;;;;;;;4944244;28;21057;-76
2022/11/29 02:50:01;;;;;;;18.52;14.88;;;;;;;;;;4949424;29;20023;-76
2022/11/29 02:52:27;;;;;;;17.00;15.20;;;;;;;;;;4953465;29;20031;-77
2022/11/29 02:55:05;;;;;;;19.38;14.02;;;;;;;;;;4948491;28;20039;-76
2022/11/29 02:57:45;;;;;;;14.88;11.98;;;;;;;;;;4946379;28;20489;-77
2022/11/29 03:00:20;;;;;;;16.90;13.93;;;;;;;;;;4948655;29;20028;-77
2022/11/29 03:02:54;;;;;;;18.05;13.40;;;;;;;;;;4948959;29;20429;-77
2022/11/29 03:05:29;;;;;;;14.73;13.15;;;;;;;;;;4951106;29;20389;-77
2022/11/29 03:08:03;;;;;;;16.65;14.40;;;;;;;;;;4949740;28;20091;-77
2022/11/29 03:10:45;;;;;;;22.90;13.63;;;;;;;;;;4945083;28;20019;-77
2022/11/29 03:13:18;;;;;;;18.63;13.45;;;;;;;;;;4945780;29;20486;-77
2022/11/29 03:15:59;;;;;;;18.55;16.20;;;;;;;;;;4952481;28;20023;-77
2022/11/29 03:18:37;;;;;;;20.13;14.35;;;;;;;;;;4946388;28;20023;-77
2022/11/29 03:21:13;;;;;;;19.42;14.15;;;;;;;;;;4953837;29;20027;-77
2022/11/29 03:23:47;;;;;;;22.58;15.07;;;;;;;;;;4948570;29;20039;-77
2022/11/29 03:26:17;;;;;;;;;;;;;;;;;;4953751;29;20031;-77
2022/11/29 03:29:08;;;;;;;20.35;15.13;;;;;;;;;;4949946;29;19914;-77
2022/11/29 03:31:35;;;;;;;14.77;13.18;;;;;;;;;;4949872;28;20031;-77
2022/11/29 03:34:12;;;;;;;22.80;14.05;;;;;;;;;;4933077;29;20042;-77
2022/11/29 03:37:07;;;;;;;13.93;12.52;;;;;;;;;;4952899;28;20023;-77
2022/11/29 03:39:46;;;;;;;18.45;13.02;;;;;;;;;;4945702;29;20027;-77
2022/11/29 03:42:21;;;;;;;16.05;11.88;;;;;;;;;;4949859;29;20030;-77
2022/11/29 03:44:55;;;;;;;18.58;13.52;;;;;;;;;;4947793;28;20975;-77
2022/11/29 03:47:27;;;;;;;18.95;14.40;;;;;;;;;;4951952;28;20039;-76
2022/11/29 03:50:02;;;;;;;11.75;10.50;;;;;;;;;;4949941;28;20027;-76
2022/11/29 03:52:32;;;;;;;17.85;12.63;;;;;;;;;;4948953;29;20035;-76
2022/11/29 03:55:07;;;;;;;13.93;12.25;;;;;;;;;;4943855;29;20397;-76
2022/11/29 03:57:40;;;;;;;13.43;11.38;;;;;;;;;;4951128;28;20054;-77
2022/11/29 04:00:08;;;;;;;16.02;12.23;;;;;;;;;;4939592;29;20031;-76
2022/11/29 04:02:39;;;;;;;13.45;11.77;;;;;;;;;;4944000;28;20026;-76
2022/11/29 04:05:27;;;;;;;14.38;12.27;;;;;;;;;;4945235;29;20493;-76
2022/11/29 04:07:55;;;;;;;16.02;12.38;;;;;;;;;;4944918;28;20027;-76
2022/11/29 04:10:24;;;;;;;19.05;13.63;;;;;;;;;;4947701;29;20031;-76
2022/11/29 04:12:59;;;;;;;16.75;11.43;;;;;;;;;;4950134;29;20449;-78
2022/11/29 04:15:33;;;;;;;14.65;12.88;;;;;;;;;;4947923;29;20031;-78
2022/11/29 04:18:11;;;;;;;14.10;11.73;;;;;;;;;;4945285;28;20035;-77
2022/11/29 04:20:54;;;;;;;14.30;12.38;;;;;;;;;;4943480;28;20027;-78
2022/11/29 04:23:26;;;;;;;17.17;12.15;;;;;;;;;;4945976;28;20042;-76
2022/11/29 04:26:00;;;;;;;14.95;12.15;;;;;;;;;;4948870;29;20051;-76
2022/11/29 04:28:39;;;;;;;19.65;12.07;;;;;;;;;;4946914;29;20039;-78
2022/11/29 04:31:23;;;;;;;15.88;11.05;;;;;;;;;;4946687;29;20039;-78
2022/11/29 04:33:57;;;;;;;17.60;12.82;;;;;;;;;;4950104;29;20035;-78
2022/11/29 04:36:25;;;;;;;13.43;10.80;;;;;;;;;;4948035;29;20066;-78
2022/11/29 04:39:06;;;;;;;16.92;11.02;;;;;;;;;;4944696;28;20027;-78
2022/11/29 04:41:40;;;;;;;21.38;13.77;;;;;;;;;;4946947;29;20031;-78
2022/11/29 04:44:14;;;;;;;15.18;11.15;;;;;;;;;;4946471;28;20031;-78
2022/11/29 04:46:55;;;;;;;15.57;13.27;;;;;;;;;;4947974;29;20027;-78
2022/11/29 04:49:44;;;;;;;12.55;9.98;;;;;;;;;;4944411;28;20046;-78
2022/11/29 04:52:19;;;;;;;17.55;13.15;;;;;;;;;;4943314;29;20042;-78
2022/11/29 04:54:45;;;;;;;20.75;12.80;;;;;;;;;;4945663;28;20027;-78
2022/11/29 04:57:21;;;;;;;23.00;11.68;;;;;;;;;;4947815;28;20023;-78
2022/11/29 04:59:50;;;;;;;21.25;13.77;;;;;;;;;;4948108;29;20031;-78
2022/11/29 05:02:28;;;;;;;20.70;13.02;;;;;;;;;;4943088;29;20034;-76
2022/11/29 05:05:20;;;;;;;26.90;14.65;;;;;;;;;;4946607;29;20050;-78
2022/11/29 05:07:46;;;;;;;22.60;16.02;;;;;;;;;;4946764;28;20034;-78
2022/11/29 05:10:15;;;;;;;21.40;12.48;;;;;;;;;;4941258;29;20027;-78
2022/11/29 05:12:54;;;;;;;20.10;12.15;;;;;;;;;;4946995;29;20039;-78
2022/11/29 05:15:34;;;;;;;23.75;12.65;;;;;;;;;;4947812;29;20477;-78
2022/11/29 05:18:18;;;;;;;25.40;13.48;;;;;;;;;;4943629;28;20497;-78
2022/11/29 05:20:52;;;;;;;28.40;13.73;;;;;;;;;;4942717;29;20032;-78
2022/11/29 05:23:21;;;;;;;28.35;14.05;;;;;;;;;;4949730;29;20035;-78
2022/11/29 05:26:08;;;;;;;16.52;11.85;;;;;;;;;;4941631;28;20390;-78
2022/11/29 05:28:36;;;;;;;20.30;14.40;;;;;;;;;;4944263;29;20034;-78
2022/11/29 05:31:11;;;;;;;22.42;14.68;;;;;;;;;;4947817;28;20049;-78
2022/11/29 05:33:48;;;;;;;39.25;15.82;;;;;;;;;;4942479;29;20378;-77
2022/11/29 05:36:28;;;;;;;33.90;19.33;;;;;;;;;;4950345;28;20513;-77
2022/11/29 05:39:15;;;;;;;31.45;14.35;;;;;;;;;;4940267;29;20040;-78
2022/11/29 05:41:43;;;;;;;35.10;14.50;;;;;;;;;;4928433;29;20051;-77
2022/11/29 05:44:29;;;;;;;26.42;15.63;;;;;;;;;;4937222;29;20040;-77
2022/11/29 05:46:55;;;;;;;29.65;15.20;;;;;;;;;;4928992;29;20035;-77
2022/11/29 05:49:37;;;;;;;26.67;14.18;;;;;;;;;;4938910;29;20031;-76
2022/11/29 05:52:07;;;;;;;;;;;;;;;;;;4928815;28;20035;-77
2022/11/29 05:54:48;;;;;;;34.20;16.80;;;;;;;;;;4929690;28;19919;-78
2022/11/29 05:57:36;;;;;;;36.78;17.23;;;;;;;;;;4927886;28;20544;-76
2022/11/29 06:00:05;;;;;;;74.28;21.25;;;;;;;;;;4926664;29;20387;-76
2022/11/29 06:02:48;;;;;;;76.53;22.10;;;;;;;;;;4928837;29;21129;-77
2022/11/29 06:05:23;;;;;;;47.05;16.88;;;;;;;;;;4933469;29;20050;-77
2022/11/29 06:07:59;;;;;;;41.58;16.45;;;;;;;;;;4932380;28;20066;-77
2022/11/29 06:10:31;;;;;;;32.10;16.42;;;;;;;;;;4930339;29;20043;-77
2022/11/29 06:13:10;;;;;;;29.92;16.17;;;;;;;;;;4939126;28;20042;-77
2022/11/29 06:15:38;;;;;;;29.70;16.02;;;;;;;;;;4933561;29;20050;-77
2022/11/29 06:18:09;;;;;;;24.63;17.27;;;;;;;;;;4933112;28;20604;-77
2022/11/29 06:20:55;;;;;;;28.50;17.00;;;;;;;;;;4931484;28;20059;-78
2022/11/29 06:23:27;;;;;;;23.08;17.55;;;;;;;;;;4947055;29;20506;-77
2022/11/29 06:26:06;;;;;;;28.42;16.00;;;;;;;;;;4955672;29;20035;-77
2022/11/29 06:28:48;;;;;;;29.50;17.77;;;;;;;;;;4953209;29;20043;-77
2022/11/29 06:31:14;;;;;;;27.73;16.23;;;;;;;;;;4953536;29;20039;-78
2022/11/29 06:33:52;;;;;;;23.38;15.48;;;;;;;;;;4954660;29;20519;-77
2022/11/29 06:36:43;;;;;;;26.33;14.80;;;;;;;;;;4953202;29;20031;-77
2022/11/29 06:39:09;;;;;;;24.15;15.30;;;;;;;;;;4929099;29;20066;-77
2022/11/29 06:41:35;;;;;;;33.55;18.45;;;;;;;;;;4936177;29;20042;-78
2022/11/29 06:44:03;;;;;;;29.00;16.60;;;;;;;;;;4935600;28;20027;-77
2022/11/29 06:46:32;;;;;;;25.45;16.73;;;;;;;;;;4934107;28;20028;-77
2022/11/29 06:49:21;;;;;;;25.90;15.00;;;;;;;;;;4931635;28;20386;-77
2022/11/29 06:51:55;;;;;;;28.85;19.08;;;;;;;;;;4928568;29;21457;-77
2022/11/29 06:54:28;;;;;;;26.55;15.38;;;;;;;;;;4934837;29;20051;-77
2022/11/29 06:56:58;;;;;;;29.45;15.00;;;;;;;;;;4937331;28;20470;-77
2022/11/29 06:59:33;;;;;;;25.23;17.48;;;;;;;;;;4939320;29;20034;-77
2022/11/29 07:02:04;;;;;;;23.25;15.07;;;;;;;;;;4945566;29;20030;-77
2022/11/29 07:04:51;;;;;;;33.22;18.05;;;;;;;;;;4945108;29;20038;-77
2022/11/29 07:07:18;;;;;;;29.27;19.15;;;;;;;;;;4945660;28;20401;-77
2022/11/29 07:09:48;;;;;;;32.67;19.30;;;;;;;;;;4948792;29;20035;-77
2022/11/29 07:12:14;;;;;;;29.70;19.40;;;;;;;;;;4951466;29;20107;-77
2022/11/29 07:14:43;;;;;;;37.20;19.92;;;;;;;;;;4945893;29;20037;-77
2022/11/29 07:17:17;;;;;;;31.98;18.95;;;;;;;;;;4945419;29;20031;-77
2022/11/29 07:19:45;;;;;;;36.97;19.40;;;;;;;;;;4948975;28;20027;-78
2022/11/29 07:22:17;;;;;;;31.02;17.65;;;;;;;;;;4946844;29;20054;-78
2022/11/29 07:25:13;;;;;;;25.75;17.23;;;;;;;;;;4945232;29;20035;-77
2022/11/29 07:27:45;;;;;;;31.95;16.65;;;;;;;;;;4967092;23;20047;-72
2022/11/29 07:30:14;;;;;;;30.90;17.17;;;;;;;;;;4947547;29;20470;-72
2022/11/29 07:32:58;;;;;;;48.90;19.15;;;;;;;;;;4952431;29;20038;-72
2022/11/29 07:35:31;;;;;;;33.05;16.90;;;;;;;;;;4944500;29;20034;-72
2022/11/29 07:38:03;;;;;;;49.35;21.95;;;;;;;;;;4950116;28;20042;-72
2022/11/29 07:40:29;;;;;;;34.03;19.88;;;;;;;;;;4946699;29;20031;-72
2022/11/29 07:43:06;;;;;;;40.75;22.42;;;;;;;;;;4948006;28;20035;-72
2022/11/29 07:45:35;;;;;;;37.22;20.92;;;;;;;;;;4949216;28;20156;-72
2022/11/29 07:48:01;;;;;;;32.83;20.65;;;;;;;;;;4948852;28;20555;-72
2022/11/29 07:50:29;;;;;;;32.28;20.00;;;;;;;;;;4931755;29;20036;-73
2022/11/29 07:52:57;;;;;;;34.47;21.60;;;;;;;;;;4949726;29;20100;-72
2022/11/29 07:55:25;;;;;;;31.13;20.33;;;;;;;;;;4951628;29;20023;-72
2022/11/29 07:57:51;;;;;;;26.80;18.30;;;;;;;;;;4946215;29;20020;-72
2022/11/29 08:00:20;;;;;;;41.88;22.60;;;;;;;;;;4946281;29;20035;-73
2022/11/29 08:02:47;;;;;;;27.90;18.13;;;;;;;;;;4951866;29;20189;-72
2022/11/29 08:05:13;;;;;;;33.90;16.20;;;;;;;;;;4950449;29;20034;-73
2022/11/29 08:07:41;;;;;;;31.20;19.42;;;;;;;;;;4945167;29;20074;-72
2022/11/29 08:10:09;;;;;;;25.65;14.32;;;;;;;;;;4947889;29;20485;-72
2022/11/29 08:12:34;;;;;;;25.40;17.27;;;;;;;;;;4949114;29;20028;-72
2022/11/29 08:15:03;;;;;;;23.38;16.27;;;;;;;;;;4949590;29;20035;-72
2022/11/29 08:17:31;;;;;;;23.83;17.83;;;;;;;;;;4962833;28;20028;-72
2022/11/29 08:20:01;;;;;;;28.75;17.65;;;;;;;;;;4945476;28;20486;-72
2022/11/29 08:22:30;;;;;;;29.02;16.98;;;;;;;;;;4950388;28;20501;-72
2022/11/29 08:24:56;;;;;;;27.17;17.17;;;;;;;;;;4951904;28;20027;-72
2022/11/29 08:27:22;;;;;;;29.45;19.55;;;;;;;;;;4950735;28;20034;-72
2022/11/29 08:29:50;;;;;;;29.40;19.40;;;;;;;;;;4949464;29;20118;-72
2022/11/29 08:32:16;;;;;;;28.13;16.40;;;;;;;;;;4933734;29;20493;-72
2022/11/29 08:34:44;;;;;;;22.92;16.33;;;;;;;;;;4947267;29;20035;-72
2022/11/29 08:37:12;;;;;;;22.48;15.95;;;;;;;;;;4946309;29;20059;-72
2022/11/29 08:39:38;;;;;;;35.25;18.70;;;;;;;;;;4935527;29;20023;-72
2022/11/29 08:42:04;;;;;;;29.30;17.73;;;;;;;;;;4950595;29;20114;-72
2022/11/29 08:44:30;;;;;;;26.02;16.45;;;;;;;;;;4950122;29;20031;-72
2022/11/29 08:55:25;;;;;;;19.95;16.92;;;;;;;;;;4948404;29;20031;-74
2022/11/29 08:57:58;;;;;;;21.42;16.05;;;;;;;;;;4929858;29;20035;-74
2022/11/29 09:00:26;;;;;;;21.73;14.57;;;;;;;;;;4947265;29;20031;-73
2022/11/29 09:02:52;;;;;;;20.42;12.80;;;;;;;;;;4945128;29;20039;-74
2022/11/29 09:05:18;;;;;;;20.73;14.93;;;;;;;;;;4952864;29;20676;-73
2022/11/29 09:07:45;;;;;;;21.88;15.75;;;;;;;;;;4949850;28;20031;-73
2022/11/29 09:10:11;;;;;;;18.40;15.35;;;;;;;;;;4951878;29;20027;-73
2022/11/29 09:12:38;;;;;;;20.33;14.23;;;;;;;;;;4942392;29;20043;-73
2022/11/29 09:15:08;;;;;;;18.42;12.98;;;;;;;;;;4952831;29;20023;-73
2022/11/29 09:17:34;;;;;;;14.52;11.35;;;;;;;;;;4949793;28;20058;-73
2022/11/29 09:20:06;;;;;;;15.20;11.32;;;;;;;;;;4956809;28;20300;-73
2022/11/29 09:22:32;;;;;;;18.55;14.93;;;;;;;;;;4939570;28;20034;-73
2022/11/29 09:24:58;;;;;;;15.65;11.80;;;;;;;;;;4940446;28;20397;-73
2022/11/29 09:27:26;;;;;;;15.18;10.13;;;;;;;;;;4942029;28;20036;-73
2022/11/29 09:29:52;;;;;;;12.38;10.70;;;;;;;;;;4950835;29;20407;-73
2022/11/29 09:32:18;;;;;;;13.93;11.88;;;;;;;;;;4963383;28;20035;-73
2022/11/29 09:34:44;;;;;;;13.18;9.90;;;;;;;;;;4947058;28;20063;-73
2022/11/29 09:37:10;;;;;;;11.60;10.38;;;;;;;;;;4941931;28;20371;-73
2022/11/29 09:39:35;;;;;;;11.32;9.23;;;;;;;;;;4951565;29;20425;-73
2022/11/29 09:42:06;;;;;;;13.00;10.10;;;;;;;;;;4947796;29;20437;-74
2022/11/29 09:44:55;;;;;;;13.70;10.10;;;;;;;;;;4946017;28;20027;-74
2022/11/29 09:47:20;;;;;;;13.20;10.20;;;;;;;;;;4935240;29;20043;-74
2022/11/29 09:49:52;;;;;;;11.30;9.15;;;;;;;;;;4952246;29;20545;-74
2022/11/29 09:52:25;;;;;;;12.93;8.82;;;;;;;;;;4951589;29;20031;-74
2022/11/29 09:54:57;;;;;;;10.77;8.47;;;;;;;;;;4946811;29;20038;-73
2022/11/29 09:57:25;;;;;;;13.18;10.23;;;;;;;;;;4944613;28;20035;-74
2022/11/29 09:59:54;;;;;;;12.15;9.85;;;;;;;;;;4947764;29;20486;-74
2022/11/29 10:02:32;;;;;;;9.50;8.10;;;;;;;;;;4947190;29;20028;-73
2022/11/29 10:05:01;;;;;;;11.25;8.90;;;;;;;;;;4949181;28;20043;-74
2022/11/29 10:07:50;;;;;;;12.13;7.53;;;;;;;;;;4946905;28;20039;-73
2022/11/29 10:10:40;;;;;;;10.52;8.13;;;;;;;;;;4943134;29;20038;-73
2022/11/29 10:13:14;;;;;;;12.40;9.77;;;;;;;;;;4950549;29;20042;-73
2022/11/29 10:15:44;;;;;;;10.20;9.20;;;;;;;;;;4948709;29;20027;-73
2022/11/29 10:18:12;;;;;;;11.80;9.32;;;;;;;;;;4959913;28;20031;-73
2022/11/29 10:20:40;;;;;;;19.02;11.25;;;;;;;;;;4948261;29;20036;-74
2022/11/29 10:23:09;;;;;;;11.25;9.35;;;;;;;;;;4950640;29;20027;-73
2022/11/29 10:25:40;;;;;;;17.10;12.98;;;;;;;;;;4950770;28;20508;-74
2022/11/29 10:28:11;;;;;;;12.15;10.70;;;;;;;;;;4942873;29;20038;-73
2022/11/29 10:30:40;;;;;;;12.80;9.75;;;;;;;;;;4951175;29;20027;-74
2022/11/29 10:33:20;;;;;;;11.65;10.15;;;;;;;;;;4950819;29;20570;-73
2022/11/29 10:35:48;;;;;;;13.45;10.32;;;;;;;;;;4952326;29;20046;-73
2022/11/29 10:38:14;;;;;;;12.02;10.27;;;;;;;;;;4945207;29;20034;-73
2022/11/29 10:40:42;;;;;;;14.00;10.85;;;;;;;;;;4950115;29;20034;-74
2022/11/29 10:43:08;;;;;;;11.07;9.40;;;;;;;;;;4950658;29;20023;-73
2022/11/29 10:45:37;;;;;;;10.52;9.50;;;;;;;;;;4950400;29;20394;-74
2022/11/29 10:48:03;;;;;;;13.07;10.02;;;;;;;;;;4945608;28;20036;-74
2022/11/29 10:50:30;;;;;;;12.27;9.05;;;;;;;;;;4941587;29;20041;-74
2022/11/29 10:53:19;;;;;;;13.80;8.70;;;;;;;;;;4951410;29;20027;-74
2022/11/29 10:56:05;;;;;;;12.80;9.13;;;;;;;;;;4949386;28;20043;-74
2022/11/29 10:58:34;;;;;;;16.50;10.75;;;;;;;;;;4950412;28;20027;-73
2022/11/29 11:01:01;;;;;;;12.07;10.80;;;;;;;;;;4960379;28;20027;-73
2022/11/29 11:03:40;;;;;;;11.45;8.77;;;;;;;;;;4944816;29;20042;-74
2022/11/29 11:06:13;;;;;;;10.45;8.98;;;;;;;;;;4944541;28;20042;-73
2022/11/29 11:08:43;;;;;;;15.90;11.18;;;;;;;;;;4949440;29;20042;-73
2022/11/29 11:11:10;;;;;;;10.25;9.15;;;;;;;;;;4949948;29;20035;-74
2022/11/29 11:13:38;;;;;;;11.20;10.07;;;;;;;;;;4952823;29;20031;-73
2022/11/29 11:16:14;;;;;;;16.73;12.98;;;;;;;;;;4943626;29;20043;-74
2022/11/29 11:18:50;;;;;;;10.05;8.80;;;;;;;;;;4948961;28;20027;-73
2022/11/29 11:21:20;;;;;;;9.23;8.30;;;;;;;;;;4949856;28;20333;-74
2022/11/29 11:23:52;;;;;;;11.40;8.73;;;;;;;;;;4952359;29;20027;-71
2022/11/29 11:26:24;;;;;;;8.98;8.13;;;;;;;;;;4953813;29;20047;-72
2022/11/29 11:28:52;;;;;;;9.45;8.15;;;;;;;;;;4945286;28;20043;-72
2022/11/29 11:31:27;;;;;;;10.13;7.78;;;;;;;;;;4952141;29;20385;-72
2022/11/29 11:33:54;;;;;;;12.90;8.43;;;;;;;;;;4951550;29;20039;-72
2022/11/29 11:36:22;;;;;;;10.70;9.05;;;;;;;;;;4953151;29;20035;-72
2022/11/29 11:38:55;;;;;;;9.90;8.68;;;;;;;;;;4949939;29;20046;-72
2022/11/29 11:44:27;;;;;;;10.60;9.13;;;;;;;;;;4951639;29;20031;-72
2022/11/29 11:46:58;;;;;;;10.23;7.55;;;;;;;;;;4943900;28;20031;-72
2022/11/29 11:49:34;;;;;;;9.80;8.20;;;;;;;;;;4950883;29;21296;-72
2022/11/29 11:52:02;;;;;;;8.77;7.65;;;;;;;;;;4934384;29;20027;-72
2022/11/29 11:54:33;;;;;;;10.85;9.00;;;;;;;;;;4950398;29;20036;-72
2022/11/29 11:57:02;;;;;;;11.68;7.95;;;;;;;;;;4947369;28;20409;-72
2022/11/29 11:59:30;;;;;;;12.10;8.02;;;;;;;;;;4953740;29;20031;-72
2022/11/29 12:01:56;;;;;;;9.82;8.20;;;;;;;;;;4950689;28;20042;-72
2022/11/29 12:04:29;;;;;;;11.57;9.07;;;;;;;;;;4949932;29;20449;-72
2022/11/29 12:06:57;;;;;;;11.43;9.25;;;;;;;;;;4950680;28;20035;-72
2022/11/29 12:09:35;;;;;;;10.35;8.50;;;;;;;;;;4950480;29;20032;-72
2022/11/29 12:12:04;;;;;;;10.75;8.93;;;;;;;;;;4950578;29;20402;-72
2022/11/29 12:14:40;;;;;;;11.18;9.10;;;;;;;;;;4950513;29;20470;-71
2022/11/29 12:17:17;;;;;;;11.95;9.00;;;;;;;;;;4942543;28;20030;-72
2022/11/29 12:19:48;;;;;;;10.25;9.25;;;;;;;;;;4945629;29;20034;-72
2022/11/29 12:22:19;;;;;;;14.10;7.82;;;;;;;;;;4957260;28;20047;-72
2022/11/29 12:24:53;;;;;;;8.75;7.85;;;;;;;;;;4961792;28;20035;-72
2022/11/29 12:27:21;;;;;;;9.18;7.45;;;;;;;;;;4945336;29;20047;-72
2022/11/29 12:29:47;;;;;;;12.48;8.10;;;;;;;;;;4952033;29;20063;-72
2022/11/29 12:32:23;;;;;;;10.68;8.90;;;;;;;;;;4951999;29;20082;-72
2022/11/29 12:35:17;;;;;;;10.35;8.10;;;;;;;;;;4952339;29;20039;-72
2022/11/29 12:37:43;;;;;;;;;;;;;;;;;;4933784;29;20375;-72
2022/11/29 12:40:17;;;;;;;8.57;6.93;;;;;;;;;;4950525;29;19921;-72
2022/11/29 12:43:04;;;;;;;13.25;8.55;;;;;;;;;;4948362;29;20478;-72
2022/11/29 12:45:35;;;;;;;11.38;8.25;;;;;;;;;;4950212;29;20035;-72
2022/11/29 12:48:20;;;;;;;11.40;8.73;;;;;;;;;;4949361;29;20039;-72
2022/11/29 12:50:54;;;;;;;11.38;8.55;;;;;;;;;;4952576;29;20035;-72
2022/11/29 12:53:20;;;;;;;9.10;7.30;;;;;;;;;;4948438;29;20684;-72
2022/11/29 12:55:59;;;;;;;11.70;9.20;;;;;;;;;;4948901;29;20035;-72
2022/11/29 12:58:25;;;;;;;14.75;9.45;;;;;;;;;;4934183;29;20035;-72
2022/11/29 13:01:14;;;;;;;10.35;7.97;;;;;;;;;;4947014;28;20034;-72
2022/11/29 13:04:01;;;;;;;6.82;5.93;;;;;;;;;;4936544;29;20406;-70
2022/11/29 13:06:38;;;;;;;11.80;9.50;;;;;;;;;;4951098;28;20039;-72
2022/11/29 13:09:21;;;;;;;8.35;7.05;;;;;;;;;;4958600;28;20040;-72
2022/11/29 13:11:57;;;;;;;8.90;7.43;;;;;;;;;;4944725;29;20044;-72
2022/11/29 13:14:47;;;;;;;12.63;7.95;;;;;;;;;;4948792;28;20039;-72
2022/11/29 13:17:20;;;;;;;13.20;8.30;;;;;;;;;;4946283;28;20039;-72
2022/11/29 13:19:50;;;;;;;12.30;8.57;;;;;;;;;;4950076;29;20027;-72
2022/11/29 13:22:36;;;;;;;12.57;8.03;;;;;;;;;;4952294;29;20586;-72
2022/11/29 13:25:07;;;;;;;7.15;6.00;;;;;;;;;;4929185;29;20492;-72
2022/11/29 13:27:39;;;;;;;10.30;8.15;;;;;;;;;;4953077;23;20061;-77
2022/11/29 13:30:12;;;;;;;8.82;6.85;;;;;;;;;;4966252;28;20385;-76
2022/11/29 13:32:49;;;;;;;11.77;7.65;;;;;;;;;;4968525;28;20034;-77
2022/11/29 13:35:18;;;;;;;12.10;9.15;;;;;;;;;;4965926;28;20034;-78
2022/11/29 13:37:46;;;;;;;10.57;7.82;;;;;;;;;;4972901;28;20481;-77
2022/11/29 13:40:27;;;;;;;10.20;7.07;;;;;;;;;;4970344;28;20385;-78
2022/11/29 13:43:12;;;;;;;14.10;8.48;;;;;;;;;;4968792;28;20034;-77
2022/11/29 13:45:43;;;;;;;13.25;7.93;;;;;;;;;;4962310;28;20038;-77
2022/11/29 13:48:30;;;;;;;12.68;9.05;;;;;;;;;;4969164;28;20043;-77
2022/11/29 13:50:56;;;;;;;9.68;8.13;;;;;;;;;;4969574;28;20042;-78
2022/11/29 13:53:23;;;;;;;19.05;11.02;;;;;;;;;;4971813;28;20046;-78
2022/11/29 13:55:59;;;;;;;12.32;7.47;;;;;;;;;;4969162;28;20047;-78
2022/11/29 13:58:28;;;;;;;10.32;8.38;;;;;;;;;;4968530;28;20031;-78
2022/11/29 14:01:01;;;;;;;10.27;8.05;;;;;;;;;;4970290;28;20027;-77
2022/11/29 14:03:34;;;;;;;8.98;7.70;;;;;;;;;;4969799;28;20409;-76
2022/11/29 14:06:17;;;;;;;12.40;8.32;;;;;;;;;;4971719;28;20030;-77
2022/11/29 14:08:54;;;;;;;11.43;7.55;;;;;;;;;;4951194;28;20038;-76
2022/11/29 14:11:25;;;;;;;12.82;7.93;;;;;;;;;;4970860;28;20050;-76
2022/11/29 14:14:06;;;;;;;13.18;10.05;;;;;;;;;;4969710;28;20385;-76
2022/11/29 14:16:41;;;;;;;7.93;7.07;;;;;;;;;;4967927;28;20033;-77
2022/11/29 14:19:09;;;;;;;11.77;9.48;;;;;;;;;;4968791;28;20312;-76
2022/11/29 14:21:56;;;;;;;11.73;7.40;;;;;;;;;;4972329;28;20034;-77
2022/11/29 14:24:30;;;;;;;12.20;8.00;;;;;;;;;;4971702;28;20031;-77
2022/11/29 14:27:16;;;;;;;11.13;8.00;;;;;;;;;;4967315;28;20031;-76
2022/11/29 14:29:48;;;;;;;11.65;8.38;;;;;;;;;;4969874;28;20042;-76
2022/11/29 14:32:33;;;;;;;12.68;8.85;;;;;;;;;;4974761;28;20035;-76
2022/11/29 14:35:08;;;;;;;14.30;9.80;;;;;;;;;;4959871;28;20505;-76
2022/11/29 14:37:58;;;;;;;10.68;9.18;;;;;;;;;;4973800;28;20027;-76
2022/11/29 14:40:32;;;;;;;9.98;8.55;;;;;;;;;;4974344;28;20038;-78
2022/11/29 14:42:59;;;;;;;9.05;8.15;;;;;;;;;;4974863;28;20026;-78
2022/11/29 14:45:31;;;;;;;9.07;8.07;;;;;;;;;;4975069;28;20045;-78
2022/11/29 14:47:57;;;;;;;11.18;9.45;;;;;;;;;;4970321;28;20030;-78
2022/11/29 14:50:29;;;;;;;15.00;9.80;;;;;;;;;;4969372;28;20031;-78
2022/11/29 14:52:55;;;;;;;13.77;8.25;;;;;;;;;;4973483;28;20030;-78
2022/11/29 14:55:24;;;;;;;17.00;10.02;;;;;;;;;;4958333;28;20039;-78
2022/11/29 14:57:50;;;;;;;11.15;8.63;;;;;;;;;;4970549;28;20053;-77
2022/11/29 15:00:16;;;;;;;14.40;9.38;;;;;;;;;;4971937;28;20031;-76
2022/11/29 15:02:52;;;;;;;11.07;9.38;;;;;;;;;;4972855;28;20042;-76
2022/11/29 15:05:17;;;;;;;;;;;;;;;;;;4975548;28;20522;-76
2022/11/29 15:07:46;;;;;;;13.55;9.50;;;;;;;;;;4969495;28;19910;-76
2022/11/29 15:10:16;;;;;;;10.80;8.23;;;;;;;;;;4973915;28;20396;-76